createdAt,value
2018-08-28T00:00:52.940Z,80.51
2018-08-28T00:01:52.923Z,80.51
2018-08-28T00:02:52.904Z,80.47
2018-08-28T00:03:52.892Z,80.76
2018-08-28T00:04:52.877Z,80.80
2018-08-28T00:05:52.858Z,80.57
2018-08-28T00:06:52.842Z,80.76
2018-08-28T00:07:52.821Z,80.57
2018-08-28T00:08:52.802Z,80.47
2018-08-28T00:09:52.793Z,80.57
2018-08-28T00:10:52.770Z,80.47
2018-08-28T00:11:52.757Z,80.66
2018-08-28T00:12:52.739Z,80.38
2018-08-28T00:13:52.720Z,80.57
2018-08-28T00:14:52.703Z,80.47
2018-08-28T00:15:52.685Z,80.38
2018-08-28T00:16:52.700Z,80.66
2018-08-28T00:17:52.652Z,80.66
2018-08-28T00:18:52.633Z,80.66
2018-08-28T00:19:52.617Z,80.47
2018-08-28T00:20:52.601Z,80.96
2018-08-28T00:21:52.593Z,80.47
2018-08-28T00:22:52.573Z,80.86
2018-08-28T00:23:52.552Z,80.47
2018-08-28T00:24:52.536Z,80.47
2018-08-28T00:25:52.517Z,80.66
2018-08-28T00:26:52.498Z,80.47
2018-08-28T00:27:52.481Z,80.66
2018-08-28T00:28:52.470Z,80.57
2018-08-28T00:29:52.448Z,80.86
2018-08-28T00:30:52.433Z,80.66
2018-08-28T00:31:52.423Z,81.53
2018-08-28T00:32:52.398Z,81.05
2018-08-28T00:33:52.378Z,81.53
2018-08-28T00:34:52.366Z,81.34
2018-08-28T00:35:52.345Z,80.96
2018-08-28T00:36:52.328Z,80.86
2018-08-28T00:37:52.312Z,80.76
2018-08-28T00:38:52.294Z,81.05
2018-08-28T00:39:52.278Z,81.15
2018-08-28T00:40:52.259Z,81.53
2018-08-28T00:41:52.241Z,81.53
2018-08-28T00:42:52.230Z,81.24
2018-08-28T00:43:52.209Z,81.05
2018-08-28T00:44:52.191Z,81.72
2018-08-28T00:45:52.185Z,81.63
2018-08-28T00:46:52.167Z,81.49
2018-08-28T00:47:52.142Z,81.43
2018-08-28T00:48:52.123Z,81.34
2018-08-28T00:49:52.109Z,81.49
2018-08-28T00:50:52.091Z,81.53
2018-08-28T00:51:52.068Z,81.49
2018-08-28T00:52:52.059Z,81.43
2018-08-28T00:53:52.035Z,81.68
2018-08-28T00:54:52.022Z,81.40
2018-08-28T00:55:52.017Z,81.49
2018-08-28T00:56:51.988Z,81.30
2018-08-28T00:57:51.967Z,81.63
2018-08-28T00:58:51.953Z,81.40
2018-08-28T00:59:51.935Z,81.30
2018-08-28T01:00:51.918Z,81.20
2018-08-28T01:01:51.900Z,81.68
2018-08-28T01:02:51.883Z,82.07
2018-08-28T01:03:51.865Z,81.68
2018-08-28T01:04:51.859Z,81.68
2018-08-28T01:05:51.830Z,81.97
2018-08-28T01:06:51.818Z,81.68
2018-08-28T01:07:51.798Z,81.40
2018-08-28T01:08:51.779Z,81.59
2018-08-28T01:09:51.763Z,81.59
2018-08-28T01:10:51.751Z,81.30
2018-08-28T01:11:51.729Z,81.05
2018-08-28T01:12:51.734Z,81.30
2018-08-28T01:13:51.693Z,81.40
2018-08-28T01:14:51.675Z,80.43
2018-08-28T01:15:51.661Z,80.53
2018-08-28T01:16:51.640Z,80.43
2018-08-28T01:17:51.631Z,80.43
2018-08-28T01:18:51.612Z,80.43
2018-08-28T01:19:51.591Z,80.24
2018-08-28T01:20:51.579Z,80.66
2018-08-28T01:21:51.562Z,80.73
2018-08-28T01:22:51.543Z,80.34
2018-08-28T01:23:51.520Z,79.99
2018-08-28T01:24:51.509Z,79.96
2018-08-28T01:25:51.487Z,79.96
2018-08-28T01:26:51.474Z,79.96
2018-08-28T01:27:51.453Z,80.28
2018-08-28T01:28:51.442Z,80.53
2018-08-28T01:29:51.418Z,80.86
2018-08-28T01:30:51.409Z,80.43
2018-08-28T01:31:51.385Z,80.73
2018-08-28T01:32:51.372Z,81.01
2018-08-28T01:33:51.353Z,81.10
2018-08-28T01:34:51.332Z,81.05
2018-08-28T01:35:51.316Z,81.78
2018-08-28T01:36:51.302Z,81.78
2018-08-28T01:37:51.282Z,82.16
2018-08-28T01:38:51.264Z,81.78
2018-08-28T01:39:51.249Z,81.49
2018-08-28T01:40:51.236Z,82.16
2018-08-28T01:41:51.211Z,82.45
2018-08-28T01:42:51.197Z,82.35
2018-08-28T01:43:51.178Z,82.35
2018-08-28T01:44:51.165Z,82.45
2018-08-28T01:45:51.155Z,82.45
2018-08-28T01:46:51.129Z,82.45
2018-08-28T01:47:51.113Z,82.74
2018-08-28T01:48:51.091Z,82.93
2018-08-28T01:49:51.075Z,82.97
2018-08-28T01:50:51.061Z,82.93
2018-08-28T01:51:51.042Z,83.60
2018-08-28T01:52:51.027Z,83.98
2018-08-28T01:53:51.007Z,83.60
2018-08-28T01:54:50.992Z,83.98
2018-08-28T01:55:50.972Z,83.98
2018-08-28T01:56:50.958Z,84.08
2018-08-28T01:57:50.938Z,84.08
2018-08-28T01:58:50.923Z,83.98
2018-08-28T01:59:50.907Z,83.89
2018-08-28T02:00:50.888Z,84.18
2018-08-28T02:01:50.872Z,84.56
2018-08-28T02:02:50.854Z,84.56
2018-08-28T02:03:50.840Z,84.08
2018-08-28T02:04:50.820Z,84.27
2018-08-28T02:05:50.801Z,83.98
2018-08-28T02:06:50.782Z,84.95
2018-08-28T02:07:50.766Z,84.56
2018-08-28T02:08:50.748Z,84.75
2018-08-28T02:09:50.730Z,85.24
2018-08-28T02:10:50.716Z,85.62
2018-08-28T02:11:50.702Z,85.52
2018-08-28T02:12:50.681Z,85.52
2018-08-28T02:13:50.663Z,85.42
2018-08-28T02:14:50.642Z,85.04
2018-08-28T02:15:50.629Z,85.52
2018-08-28T02:16:50.609Z,85.24
2018-08-28T02:17:50.593Z,85.04
2018-08-28T02:18:50.575Z,85.62
2018-08-28T02:19:50.561Z,86.19
2018-08-28T02:20:50.544Z,85.71
2018-08-28T02:21:50.525Z,85.52
2018-08-28T02:22:50.507Z,86.10
2018-08-28T02:23:50.489Z,85.62
2018-08-28T02:24:50.472Z,85.33
2018-08-28T02:25:50.454Z,86.29
2018-08-28T02:26:50.442Z,86.29
2018-08-28T02:27:50.423Z,85.14
2018-08-28T02:28:50.404Z,85.42
2018-08-28T02:29:50.386Z,85.42
2018-08-28T02:30:50.368Z,85.33
2018-08-28T02:31:50.350Z,85.24
2018-08-28T02:32:50.334Z,85.52
2018-08-28T02:33:50.317Z,85.62
2018-08-28T02:34:50.298Z,85.04
2018-08-28T02:35:50.285Z,85.24
2018-08-28T02:36:50.263Z,85.14
2018-08-28T02:37:50.246Z,85.33
2018-08-28T02:38:50.233Z,85.33
2018-08-28T02:39:50.215Z,85.62
2018-08-28T02:40:50.197Z,86.19
2018-08-28T02:41:50.180Z,85.81
2018-08-28T02:42:50.165Z,85.48
2018-08-28T02:43:50.147Z,85.67
2018-08-28T02:44:50.125Z,85.28
2018-08-28T02:45:50.113Z,85.19
2018-08-28T02:46:50.095Z,85.42
2018-08-28T02:47:50.080Z,86.25
2018-08-28T02:48:50.063Z,86.05
2018-08-28T02:49:50.041Z,86.34
2018-08-28T02:50:50.025Z,86.15
2018-08-28T02:51:50.009Z,86.15
2018-08-28T02:52:49.993Z,86.15
2018-08-28T02:53:49.969Z,86.25
2018-08-28T02:54:49.951Z,86.15
2018-08-28T02:55:49.934Z,86.15
2018-08-28T02:56:49.916Z,86.25
2018-08-28T02:57:49.903Z,85.86
2018-08-28T02:58:49.886Z,86.05
2018-08-28T02:59:49.868Z,86.54
2018-08-28T03:00:49.850Z,86.82
2018-08-28T03:01:49.830Z,86.25
2018-08-28T03:02:49.880Z,85.86
2018-08-28T03:03:49.798Z,86.72
2018-08-28T03:04:49.779Z,86.44
2018-08-28T03:05:49.763Z,86.63
2018-08-28T03:06:49.746Z,86.34
2018-08-28T03:07:49.724Z,86.15
2018-08-28T03:08:49.710Z,86.44
2018-08-28T03:09:49.690Z,87.11
2018-08-28T03:10:49.677Z,86.44
2018-08-28T03:11:49.663Z,86.25
2018-08-28T03:12:49.642Z,86.05
2018-08-28T03:13:49.619Z,86.82
2018-08-28T03:14:49.608Z,86.25
2018-08-28T03:15:49.618Z,86.92
2018-08-28T03:16:49.575Z,87.11
2018-08-28T03:17:49.549Z,87.30
2018-08-28T03:18:49.539Z,87.11
2018-08-28T03:19:49.515Z,87.01
2018-08-28T03:20:49.501Z,87.40
2018-08-28T03:21:49.483Z,87.88
2018-08-28T03:22:49.463Z,87.78
2018-08-28T03:23:49.447Z,87.68
2018-08-28T03:24:49.430Z,87.98
2018-08-28T03:25:49.412Z,87.59
2018-08-28T03:26:49.395Z,87.59
2018-08-28T03:27:49.374Z,87.88
2018-08-28T03:28:49.360Z,87.78
2018-08-28T03:29:49.337Z,87.84
2018-08-28T03:30:49.322Z,88.02
2018-08-28T03:31:49.310Z,88.22
2018-08-28T03:32:49.287Z,88.02
2018-08-28T03:33:49.269Z,87.55
2018-08-28T03:34:49.252Z,87.68
2018-08-28T03:35:49.237Z,87.64
2018-08-28T03:36:49.215Z,88.02
2018-08-28T03:37:49.198Z,88.41
2018-08-28T03:38:49.177Z,88.60
2018-08-28T03:39:49.164Z,88.02
2018-08-28T03:40:49.152Z,88.31
2018-08-28T03:41:49.127Z,88.02
2018-08-28T03:42:49.113Z,87.93
2018-08-28T03:43:49.091Z,88.22
2018-08-28T03:44:49.126Z,88.51
2018-08-28T03:45:49.060Z,88.51
2018-08-28T03:46:49.041Z,88.89
2018-08-28T03:47:49.024Z,89.37
2018-08-28T03:48:49.003Z,88.98
2018-08-28T03:49:48.981Z,88.98
2018-08-28T03:50:48.967Z,89.27
2018-08-28T03:51:48.949Z,89.27
2018-08-28T03:52:48.936Z,89.27
2018-08-28T03:53:48.937Z,89.75
2018-08-28T03:54:48.895Z,89.85
2018-08-28T03:55:48.882Z,90.14
2018-08-28T03:56:48.861Z,89.85
2018-08-28T03:57:48.844Z,89.65
2018-08-28T03:58:48.829Z,89.85
2018-08-28T03:59:48.828Z,89.75
2018-08-28T04:00:48.794Z,89.75
2018-08-28T04:01:48.776Z,89.65
2018-08-28T04:02:48.758Z,89.94
2018-08-28T04:03:48.833Z,89.47
2018-08-28T04:04:48.723Z,89.65
2018-08-28T04:05:48.704Z,89.75
2018-08-28T04:06:48.690Z,89.56
2018-08-28T04:07:48.667Z,89.08
2018-08-28T04:08:48.653Z,89.37
2018-08-28T04:09:48.634Z,88.65
2018-08-28T04:10:48.615Z,88.93
2018-08-28T04:11:48.597Z,88.84
2018-08-28T04:12:48.578Z,88.65
2018-08-28T04:13:48.562Z,88.45
2018-08-28T04:14:48.546Z,88.74
2018-08-28T04:15:48.527Z,88.35
2018-08-28T04:16:48.505Z,87.59
2018-08-28T04:17:48.491Z,87.88
2018-08-28T04:18:48.473Z,87.40
2018-08-28T04:19:48.457Z,86.72
2018-08-28T04:20:48.443Z,86.63
2018-08-28T04:21:48.422Z,86.92
2018-08-28T04:22:48.401Z,86.92
2018-08-28T04:23:48.382Z,87.01
2018-08-28T04:24:48.368Z,87.11
2018-08-28T04:25:48.344Z,87.49
2018-08-28T04:26:48.328Z,87.49
2018-08-28T04:27:48.315Z,87.30
2018-08-28T04:28:48.293Z,87.59
2018-08-28T04:29:48.283Z,87.68
2018-08-28T04:30:48.270Z,87.88
2018-08-28T04:31:48.239Z,86.82
2018-08-28T04:32:48.222Z,86.82
2018-08-28T04:33:48.209Z,87.11
2018-08-28T04:34:48.186Z,86.97
2018-08-28T04:35:48.170Z,87.01
2018-08-28T04:36:48.149Z,87.01
2018-08-28T04:37:48.136Z,87.30
2018-08-28T04:38:48.117Z,86.44
2018-08-28T04:39:48.102Z,86.34
2018-08-28T04:40:48.081Z,86.34
2018-08-28T04:41:48.139Z,86.25
2018-08-28T04:42:48.048Z,86.15
2018-08-28T04:43:48.027Z,86.15
2018-08-28T04:44:48.016Z,85.86
2018-08-28T04:45:47.993Z,85.48
2018-08-28T04:46:47.972Z,85.96
2018-08-28T04:47:47.959Z,85.86
2018-08-28T04:48:47.942Z,86.34
2018-08-28T04:49:47.921Z,86.15
2018-08-28T04:50:47.905Z,86.15
2018-08-28T04:51:47.889Z,86.92
2018-08-28T04:52:47.916Z,86.34
2018-08-28T04:53:47.848Z,86.44
2018-08-28T04:54:47.854Z,86.72
2018-08-28T04:55:47.813Z,86.54
2018-08-28T04:56:47.801Z,87.11
2018-08-28T04:57:47.779Z,86.34
2018-08-28T04:58:47.761Z,86.34
2018-08-28T04:59:47.747Z,86.54
2018-08-28T05:00:47.764Z,85.86
2018-08-28T05:01:47.712Z,86.05
2018-08-28T05:02:47.692Z,85.96
2018-08-28T05:03:47.675Z,86.05
2018-08-28T05:04:47.654Z,86.15
2018-08-28T05:05:47.643Z,86.15
2018-08-28T05:06:47.622Z,85.96
2018-08-28T05:07:47.605Z,86.54
2018-08-28T05:08:47.589Z,86.25
2018-08-28T05:09:47.565Z,86.34
2018-08-28T05:10:47.549Z,85.86
2018-08-28T05:11:47.571Z,85.96
2018-08-28T05:12:47.513Z,86.34
2018-08-28T05:13:47.500Z,85.96
2018-08-28T05:14:47.478Z,86.25
2018-08-28T05:15:47.484Z,85.48
2018-08-28T05:16:47.442Z,85.77
2018-08-28T05:17:47.424Z,85.38
2018-08-28T05:18:47.406Z,85.10
2018-08-28T05:19:47.390Z,84.71
2018-08-28T05:20:47.372Z,85.28
2018-08-28T05:21:47.365Z,85.28
2018-08-28T05:22:47.338Z,85.38
2018-08-28T05:23:47.317Z,85.10
2018-08-28T05:24:47.325Z,85.19
2018-08-28T05:25:47.284Z,85.38
2018-08-28T05:26:47.267Z,85.38
2018-08-28T05:27:47.248Z,85.28
2018-08-28T05:28:47.242Z,85.67
2018-08-28T05:29:47.216Z,84.91
2018-08-28T05:30:47.199Z,85.10
2018-08-28T05:31:47.182Z,84.81
2018-08-28T05:32:47.165Z,85.28
2018-08-28T05:33:47.148Z,84.61
2018-08-28T05:34:47.131Z,84.91
2018-08-28T05:35:47.112Z,84.42
2018-08-28T05:36:47.094Z,84.33
2018-08-28T05:37:47.082Z,84.04
2018-08-28T05:38:47.053Z,83.85
2018-08-28T05:39:47.036Z,83.56
2018-08-28T05:40:47.024Z,83.56
2018-08-28T05:41:47.001Z,83.56
2018-08-28T05:42:46.986Z,83.12
2018-08-28T05:43:46.971Z,83.27
2018-08-28T05:44:46.951Z,83.27
2018-08-28T05:45:46.930Z,82.70
2018-08-28T05:46:46.914Z,82.74
2018-08-28T05:47:46.901Z,83.22
2018-08-28T05:48:46.879Z,82.79
2018-08-28T05:49:46.860Z,82.93
2018-08-28T05:50:46.844Z,82.84
2018-08-28T05:51:46.826Z,82.74
2018-08-28T05:52:46.809Z,82.74
2018-08-28T05:53:46.794Z,82.74
2018-08-28T05:54:46.775Z,82.54
2018-08-28T05:55:46.766Z,82.84
2018-08-28T05:56:46.741Z,82.16
2018-08-28T05:57:46.724Z,82.35
2018-08-28T05:58:46.708Z,82.16
2018-08-28T05:59:46.691Z,81.87
2018-08-28T06:00:46.673Z,82.45
2018-08-28T06:01:46.654Z,82.35
2018-08-28T06:02:46.638Z,82.54
2018-08-28T06:03:46.620Z,82.26
2018-08-28T06:04:46.603Z,83.03
2018-08-28T06:05:46.587Z,82.84
2018-08-28T06:06:46.565Z,82.84
2018-08-28T06:07:46.552Z,82.84
2018-08-28T06:08:46.585Z,81.78
2018-08-28T06:09:46.513Z,81.49
2018-08-28T06:10:46.503Z,81.01
2018-08-28T06:11:46.490Z,81.01
2018-08-28T06:12:46.467Z,81.20
2018-08-28T06:13:46.451Z,81.20
2018-08-28T06:14:46.540Z,81.01
2018-08-28T06:15:46.613Z,81.20
2018-08-28T06:16:46.395Z,81.15
2018-08-28T06:17:46.377Z,81.43
2018-08-28T06:18:46.360Z,80.66
2018-08-28T06:19:46.343Z,80.47
2018-08-28T06:20:46.324Z,80.19
2018-08-28T06:21:46.309Z,80.76
2018-08-28T06:22:46.293Z,79.80
2018-08-28T06:23:46.275Z,80.47
2018-08-28T06:24:46.258Z,79.80
2018-08-28T06:25:46.242Z,80.47
2018-08-28T06:26:46.221Z,79.71
2018-08-28T06:27:46.206Z,80.47
2018-08-28T06:28:46.192Z,80.28
2018-08-28T06:29:46.176Z,80.19
2018-08-28T06:30:46.152Z,80.19
2018-08-28T06:31:46.140Z,79.71
2018-08-28T06:32:46.122Z,79.75
2018-08-28T06:33:46.139Z,79.84
2018-08-28T06:34:46.088Z,79.46
2018-08-28T06:35:46.068Z,79.71
2018-08-28T06:36:46.055Z,79.46
2018-08-28T06:37:46.046Z,79.46
2018-08-28T06:38:46.028Z,79.22
2018-08-28T06:39:46.005Z,79.36
2018-08-28T06:40:45.982Z,78.59
2018-08-28T06:41:45.965Z,78.98
2018-08-28T06:42:45.953Z,79.07
2018-08-28T06:43:45.989Z,78.50
2018-08-28T06:44:45.921Z,78.02
2018-08-28T06:45:45.898Z,78.40
2018-08-28T06:46:45.885Z,78.11
2018-08-28T06:47:45.872Z,78.11
2018-08-28T06:48:45.851Z,78.21
2018-08-28T06:49:45.831Z,78.11
2018-08-28T06:50:45.821Z,78.25
2018-08-28T06:51:45.805Z,78.83
2018-08-28T06:52:45.783Z,78.15
2018-08-28T06:53:45.767Z,78.06
2018-08-28T06:54:45.750Z,77.09
2018-08-28T06:55:45.736Z,76.42
2018-08-28T06:56:45.764Z,76.42
2018-08-28T06:57:45.699Z,75.94
2018-08-28T06:58:45.682Z,75.17
2018-08-28T06:59:45.678Z,75.27
2018-08-28T07:00:45.650Z,75.98
2018-08-28T07:01:45.637Z,75.11
2018-08-28T07:02:45.617Z,75.21
2018-08-28T07:03:45.615Z,74.67
2018-08-28T07:04:45.588Z,74.67
2018-08-28T07:05:45.567Z,73.90
2018-08-28T07:06:45.554Z,73.36
2018-08-28T07:07:45.535Z,72.59
2018-08-28T07:08:45.521Z,71.18
2018-08-28T07:09:45.502Z,69.93
2018-08-28T07:10:45.491Z,69.67
2018-08-28T07:11:45.471Z,68.71
2018-08-28T07:12:45.459Z,67.40
2018-08-28T07:13:45.439Z,66.08
2018-08-28T07:14:45.427Z,65.34
2018-08-28T07:15:45.414Z,64.59
2018-08-28T07:16:45.397Z,63.63
2018-08-28T07:17:45.378Z,62.50
2018-08-28T07:18:45.393Z,61.25
2018-08-28T07:19:45.349Z,61.92
2018-08-28T07:20:45.336Z,61.63
2018-08-28T07:21:45.318Z,61.05
2018-08-28T07:22:45.304Z,60.50
2018-08-28T07:23:45.290Z,60.02
2018-08-28T07:24:45.276Z,59.38
2018-08-28T07:25:45.385Z,59.08
2018-08-28T07:26:45.247Z,58.80
2018-08-28T07:27:45.231Z,58.63
2018-08-28T07:28:45.216Z,58.14
2018-08-28T07:29:45.207Z,57.59
2018-08-28T07:30:45.194Z,56.82
2018-08-28T07:31:45.255Z,55.94
2018-08-28T07:32:45.166Z,55.30
2018-08-28T07:33:45.157Z,54.62
2018-08-28T07:34:45.143Z,54.98
2018-08-28T07:35:45.131Z,55.46
2018-08-28T07:36:45.114Z,55.46
2018-08-28T07:37:45.101Z,55.66
2018-08-28T07:38:45.094Z,55.88
2018-08-28T07:39:45.079Z,54.52
2018-08-28T07:40:45.078Z,54.16
2018-08-28T07:41:45.055Z,53.39
2018-08-28T07:42:45.099Z,52.25
2018-08-28T07:43:45.036Z,51.96
2018-08-28T07:44:45.022Z,51.96
2018-08-28T07:45:45.015Z,51.76
2018-08-28T07:46:45.002Z,51.86
2018-08-28T07:47:44.991Z,51.69
2018-08-28T07:48:44.980Z,51.72
2018-08-28T07:49:44.966Z,50.65
2018-08-28T07:50:44.961Z,50.65
2018-08-28T07:51:44.955Z,51.35
2018-08-28T07:52:44.939Z,50.21
2018-08-28T07:53:44.937Z,49.63
2018-08-28T07:54:44.921Z,49.24
2018-08-28T07:55:44.908Z,48.58
2018-08-28T07:56:44.901Z,48.39
2018-08-28T07:57:44.891Z,47.54
2018-08-28T07:58:44.883Z,45.48
2018-08-28T07:59:44.874Z,46.94
2018-08-28T08:00:44.914Z,47.49
2018-08-28T08:01:44.850Z,48.30
2018-08-28T08:02:44.843Z,46.84
2018-08-28T08:03:44.843Z,47.23
2018-08-28T08:04:44.829Z,46.64
2018-08-28T08:05:44.817Z,45.87
2018-08-28T08:06:44.812Z,45.40
2018-08-28T08:07:44.802Z,45.50
2018-08-28T08:08:44.793Z,45.50
2018-08-28T08:09:44.783Z,44.92
2018-08-28T08:10:44.778Z,45.89
2018-08-28T08:11:44.768Z,45.69
2018-08-28T08:12:44.762Z,45.40
2018-08-28T08:13:44.749Z,44.33
2018-08-28T08:14:44.744Z,45.81
2018-08-28T08:15:44.825Z,44.65
2018-08-28T08:16:44.730Z,45.64
2018-08-28T08:17:44.720Z,44.48
2018-08-28T08:18:44.714Z,44.69
2018-08-28T08:19:44.705Z,43.70
2018-08-28T08:20:44.700Z,44.28
2018-08-28T08:21:44.695Z,44.84
2018-08-28T08:22:44.682Z,44.45
2018-08-28T08:23:44.679Z,44.86
2018-08-28T08:24:44.670Z,43.89
2018-08-28T08:25:44.663Z,43.43
2018-08-28T08:26:44.661Z,42.66
2018-08-28T08:27:44.688Z,41.91
2018-08-28T08:28:44.640Z,40.55
2018-08-28T08:29:44.635Z,39.49
2018-08-28T08:30:44.635Z,39.67
2018-08-28T08:31:44.621Z,39.98
2018-08-28T08:32:44.618Z,40.66
2018-08-28T08:33:44.611Z,39.51
2018-08-28T08:34:44.605Z,39.51
2018-08-28T08:35:44.594Z,38.53
2018-08-28T08:36:44.592Z,38.55
2018-08-28T08:37:44.581Z,38.94
2018-08-28T08:38:44.576Z,38.73
2018-08-28T08:39:44.573Z,39.12
2018-08-28T08:40:44.564Z,39.67
2018-08-28T08:41:44.569Z,40.56
2018-08-28T08:42:44.551Z,40.00
2018-08-28T08:43:44.556Z,38.04
2018-08-28T08:44:44.542Z,39.62
2018-08-28T08:45:44.532Z,38.34
2018-08-28T08:46:44.531Z,39.80
2018-08-28T08:47:44.519Z,39.80
2018-08-28T08:48:44.519Z,39.61
2018-08-28T08:49:44.509Z,39.29
2018-08-28T08:50:44.503Z,39.78
2018-08-28T08:51:44.497Z,39.08
2018-08-28T08:52:44.487Z,39.29
2018-08-28T08:53:44.484Z,38.89
2018-08-28T08:54:44.524Z,39.76
2018-08-28T08:55:44.473Z,40.06
2018-08-28T08:56:44.466Z,40.73
2018-08-28T08:57:44.460Z,40.06
2018-08-28T08:58:44.453Z,39.10
2018-08-28T08:59:44.443Z,39.39
2018-08-28T09:00:44.436Z,37.63
2018-08-28T09:01:44.430Z,38.22
2018-08-28T09:02:44.427Z,37.83
2018-08-28T09:03:44.416Z,38.98
2018-08-28T09:04:44.409Z,38.18
2018-08-28T09:05:44.399Z,39.75
2018-08-28T09:06:44.394Z,39.16
2018-08-28T09:07:44.389Z,40.42
2018-08-28T09:08:44.388Z,40.35
2018-08-28T09:09:44.375Z,38.51
2018-08-28T09:10:44.371Z,38.12
2018-08-28T09:11:44.365Z,37.73
2018-08-28T09:12:44.359Z,38.61
2018-08-28T09:13:44.348Z,38.42
2018-08-28T09:14:44.344Z,37.81
2018-08-28T09:15:44.344Z,38.79
2018-08-28T09:16:44.347Z,39.65
2018-08-28T09:17:44.319Z,39.45
2018-08-28T09:18:44.315Z,38.87
2018-08-28T09:19:44.311Z,39.57
2018-08-28T09:20:44.303Z,39.37
2018-08-28T09:21:44.295Z,38.01
2018-08-28T09:22:44.285Z,37.23
2018-08-28T09:23:44.284Z,37.21
2018-08-28T09:24:44.278Z,38.28
2018-08-28T09:25:44.269Z,38.18
2018-08-28T09:26:44.258Z,37.29
2018-08-28T09:27:44.257Z,37.19
2018-08-28T09:28:44.246Z,38.46
2018-08-28T09:29:44.238Z,39.36
2018-08-28T09:30:44.237Z,38.18
2018-08-28T09:31:44.294Z,37.79
2018-08-28T09:32:44.223Z,38.67
2018-08-28T09:33:44.214Z,38.96
2018-08-28T09:34:44.209Z,38.18
2018-08-28T09:35:44.203Z,39.04
2018-08-28T09:36:44.203Z,39.12
2018-08-28T09:37:44.191Z,39.69
2018-08-28T09:38:44.266Z,40.56
2018-08-28T09:39:44.177Z,39.78
2018-08-28T09:40:44.171Z,39.57
2018-08-28T09:41:44.160Z,40.33
2018-08-28T09:42:44.159Z,40.64
2018-08-28T09:43:44.180Z,41.22
2018-08-28T09:44:44.145Z,39.78
2018-08-28T09:45:44.138Z,39.88
2018-08-28T09:46:44.127Z,39.31
2018-08-28T09:47:44.121Z,39.61
2018-08-28T09:48:44.114Z,39.41
2018-08-28T09:49:44.108Z,39.53
2018-08-28T09:50:44.150Z,39.62
2018-08-28T09:51:44.095Z,38.38
2018-08-28T09:52:44.089Z,37.60
2018-08-28T09:53:44.087Z,36.94
2018-08-28T09:54:44.079Z,37.43
2018-08-28T09:55:44.071Z,35.98
2018-08-28T09:56:44.227Z,35.10
2018-08-28T09:57:44.059Z,34.91
2018-08-28T09:58:44.055Z,35.49
2018-08-28T09:59:44.049Z,35.49
2018-08-28T10:00:44.043Z,36.78
2018-08-28T10:01:44.046Z,35.90
2018-08-28T10:02:44.045Z,34.32
2018-08-28T10:03:44.031Z,34.50
2018-08-28T10:04:44.067Z,34.99
2018-08-28T10:05:44.018Z,34.99
2018-08-28T10:06:44.011Z,35.96
2018-08-28T10:07:44.053Z,36.37
2018-08-28T10:08:44.002Z,35.77
2018-08-28T10:09:43.999Z,36.45
2018-08-28T10:10:44.030Z,36.08
2018-08-28T10:11:43.989Z,36.88
2018-08-28T10:12:43.980Z,35.24
2018-08-28T10:13:43.974Z,34.16
2018-08-28T10:14:43.975Z,35.04
2018-08-28T10:15:43.966Z,33.58
2018-08-28T10:16:43.968Z,34.38
2018-08-28T10:17:43.958Z,33.59
2018-08-28T10:18:43.952Z,34.29
2018-08-28T10:19:43.951Z,34.39
2018-08-28T10:20:43.946Z,34.19
2018-08-28T10:21:43.943Z,35.38
2018-08-28T10:22:43.962Z,35.13
2018-08-28T10:23:43.935Z,32.56
2018-08-28T10:24:43.928Z,32.87
2018-08-28T10:25:43.921Z,32.20
2018-08-28T10:26:43.918Z,31.71
2018-08-28T10:27:43.920Z,31.98
2018-08-28T10:28:43.917Z,34.01
2018-08-28T10:29:43.954Z,33.20
2018-08-28T10:30:43.908Z,33.18
2018-08-28T10:31:43.904Z,33.30
2018-08-28T10:32:43.899Z,33.01
2018-08-28T10:33:43.895Z,34.09
2018-08-28T10:34:43.893Z,33.20
2018-08-28T10:35:43.887Z,34.57
2018-08-28T10:36:43.884Z,33.18
2018-08-28T10:37:43.877Z,34.65
2018-08-28T10:38:43.874Z,34.63
2018-08-28T10:39:43.878Z,35.20
2018-08-28T10:40:43.865Z,34.91
2018-08-28T10:41:43.870Z,36.35
2018-08-28T10:42:43.856Z,34.89
2018-08-28T10:43:43.850Z,34.88
2018-08-28T10:44:43.848Z,36.41
2018-08-28T10:45:43.848Z,36.80
2018-08-28T10:46:43.977Z,37.08
2018-08-28T10:47:43.838Z,38.05
2018-08-28T10:48:43.834Z,37.29
2018-08-28T10:49:43.826Z,36.88
2018-08-28T10:50:43.822Z,36.80
2018-08-28T10:51:43.815Z,34.97
2018-08-28T10:52:43.830Z,35.38
2018-08-28T10:53:43.805Z,34.03
2018-08-28T10:54:43.803Z,33.36
2018-08-28T10:55:43.803Z,33.17
2018-08-28T10:56:43.848Z,32.81
2018-08-28T10:57:43.790Z,32.62
2018-08-28T10:58:43.904Z,32.06
2018-08-28T10:59:43.782Z,31.00
2018-08-28T11:00:43.776Z,30.02
2018-08-28T11:01:43.775Z,29.93
2018-08-28T11:02:43.768Z,29.74
2018-08-28T11:03:43.779Z,29.64
2018-08-28T11:04:43.778Z,31.59
2018-08-28T11:05:43.760Z,30.61
2018-08-28T11:06:43.751Z,31.49
2018-08-28T11:07:43.753Z,32.06
2018-08-28T11:08:43.783Z,31.46
2018-08-28T11:09:43.743Z,31.35
2018-08-28T11:10:43.748Z,32.79
2018-08-28T11:11:43.743Z,32.09
2018-08-28T11:12:43.734Z,33.43
2018-08-28T11:13:43.729Z,34.03
2018-08-28T11:14:43.727Z,32.78
2018-08-28T11:15:43.719Z,32.76
2018-08-28T11:16:43.717Z,32.76
2018-08-28T11:17:43.716Z,33.92
2018-08-28T11:18:43.708Z,35.08
2018-08-28T11:19:43.702Z,36.14
2018-08-28T11:20:43.696Z,35.46
2018-08-28T11:21:43.695Z,35.73
2018-08-28T11:22:43.699Z,36.12
2018-08-28T11:23:43.687Z,35.16
2018-08-28T11:24:43.684Z,34.76
2018-08-28T11:25:43.678Z,36.32
2018-08-28T11:26:43.671Z,35.13
2018-08-28T11:27:43.667Z,35.52
2018-08-28T11:28:43.661Z,36.41
2018-08-28T11:29:43.669Z,36.72
2018-08-28T11:30:43.651Z,34.48
2018-08-28T11:31:43.648Z,34.95
2018-08-28T11:32:43.648Z,35.71
2018-08-28T11:33:43.635Z,35.93
2018-08-28T11:34:43.631Z,34.97
2018-08-28T11:35:43.686Z,36.14
2018-08-28T11:36:43.619Z,35.39
2018-08-28T11:37:43.619Z,35.22
2018-08-28T11:38:43.613Z,34.84
2018-08-28T11:39:43.608Z,32.03
2018-08-28T11:40:43.604Z,32.24
2018-08-28T11:41:43.592Z,31.77
2018-08-28T11:42:43.592Z,31.59
2018-08-28T11:43:43.587Z,30.62
2018-08-28T11:44:43.580Z,30.62
2018-08-28T11:45:43.579Z,30.26
2018-08-28T11:46:43.570Z,30.15
2018-08-28T11:47:43.567Z,29.36
2018-08-28T11:48:43.566Z,28.67
2018-08-28T11:49:43.557Z,30.32
2018-08-28T11:50:43.553Z,30.59
2018-08-28T11:51:43.553Z,31.26
2018-08-28T11:52:43.655Z,31.93
2018-08-28T11:53:43.539Z,32.50
2018-08-28T11:54:43.539Z,33.17
2018-08-28T11:55:43.535Z,33.56
2018-08-28T11:56:43.526Z,33.38
2018-08-28T11:57:43.523Z,33.69
2018-08-28T11:58:43.518Z,33.89
2018-08-28T11:59:43.517Z,32.06
2018-08-28T12:00:43.510Z,31.67
2018-08-28T12:01:43.504Z,31.28
2018-08-28T12:02:43.500Z,30.90
2018-08-28T12:03:43.495Z,31.20
2018-08-28T12:04:43.502Z,29.94
2018-08-28T12:05:43.492Z,30.74
2018-08-28T12:06:43.571Z,31.81
2018-08-28T12:07:43.536Z,30.13
2018-08-28T12:08:43.478Z,30.33
2018-08-28T12:09:43.472Z,30.62
2018-08-28T12:10:43.477Z,30.23
2018-08-28T12:11:43.468Z,29.75
2018-08-28T12:12:43.463Z,29.95
2018-08-28T12:13:43.456Z,29.74
2018-08-28T12:14:43.457Z,30.22
2018-08-28T12:15:43.448Z,29.84
2018-08-28T12:16:43.451Z,28.58
2018-08-28T12:17:43.453Z,29.17
2018-08-28T12:18:43.440Z,29.17
2018-08-28T12:19:43.434Z,28.99
2018-08-28T12:20:43.439Z,27.12
2018-08-28T12:21:43.430Z,27.62
2018-08-28T12:22:43.423Z,28.19
2018-08-28T12:23:43.440Z,29.16
2018-08-28T12:24:43.419Z,31.01
2018-08-28T12:25:43.415Z,30.91
2018-08-28T12:26:43.515Z,31.80
2018-08-28T12:27:43.410Z,31.31
2018-08-28T12:28:43.405Z,31.39
2018-08-28T12:29:43.408Z,31.78
2018-08-28T12:30:43.401Z,31.77
2018-08-28T12:31:43.394Z,31.96
2018-08-28T12:32:43.388Z,32.63
2018-08-28T12:33:43.387Z,33.20
2018-08-28T12:34:43.411Z,31.92
2018-08-28T12:35:43.382Z,33.07
2018-08-28T12:36:43.398Z,33.85
2018-08-28T12:37:43.372Z,33.44
2018-08-28T12:38:43.370Z,33.15
2018-08-28T12:39:43.361Z,33.23
2018-08-28T12:40:43.361Z,35.06
2018-08-28T12:41:43.353Z,34.56
2018-08-28T12:42:43.438Z,36.12
2018-08-28T12:43:43.366Z,36.59
2018-08-28T12:44:43.339Z,37.08
2018-08-28T12:45:43.333Z,37.45
2018-08-28T12:46:43.332Z,37.16
2018-08-28T12:47:43.325Z,36.65
2018-08-28T12:48:43.320Z,36.54
2018-08-28T12:49:43.316Z,37.32
2018-08-28T12:50:43.307Z,38.87
2018-08-28T12:51:43.302Z,39.36
2018-08-28T12:52:43.296Z,39.26